Time;durP1;ratioP1;P1;durP2;ratioP2;P2;SDS_P1;SDS_P2;PMS_P1;PMS_P2;Temp;Humidity;BMP_temperature;BMP_pressure;BME280_temperature;BME280_humidity;BME280_pressure;Samples;Min_cycle;Max_cycle;Signal;HPM_P1;HPM_P2
2023/11/10 00:01:17;;;;;;;3.10;1.37;;;;;;;;;;5115889;28;20258;-36
2023/11/10 00:03:42;;;;;;;3.07;1.40;;;;;;;;;;5116027;28;20798;-35
2023/11/10 00:06:07;;;;;;;2.27;1.30;;;;;;;;;;5117099;28;20381;-35
2023/11/10 00:08:33;;;;;;;4.67;1.67;;;;;;;;;;5116013;28;20277;-36
2023/11/10 00:10:58;;;;;;;5.90;1.70;;;;;;;;;;5116121;28;20254;-35
2023/11/10 00:13:24;;;;;;;4.07;1.70;;;;;;;;;;5116150;28;20091;-32
2023/11/10 00:15:49;;;;;;;3.97;1.75;;;;;;;;;;5116132;28;20027;-34
2023/11/10 00:18:14;;;;;;;5.47;1.88;;;;;;;;;;5116120;28;20016;-36
2023/11/10 00:20:40;;;;;;;5.20;1.95;;;;;;;;;;5116079;28;20028;-36
2023/11/10 00:23:06;;;;;;;5.07;2.00;;;;;;;;;;5115864;28;20033;-36
2023/11/10 00:25:32;;;;;;;3.60;1.95;;;;;;;;;;5115632;28;20012;-36
2023/11/10 00:27:57;;;;;;;4.47;1.88;;;;;;;;;;5115569;28;20022;-35
2023/11/10 00:30:22;;;;;;;4.38;2.00;;;;;;;;;;5115919;28;20083;-36
2023/11/10 00:32:48;;;;;;;4.00;1.88;;;;;;;;;;5115398;28;20019;-35
2023/11/10 00:35:13;;;;;;;6.25;2.00;;;;;;;;;;5116591;28;20020;-35
2023/11/10 00:37:38;;;;;;;5.50;2.40;;;;;;;;;;5115437;28;20103;-36
2023/11/10 00:40:04;;;;;;;5.75;2.30;;;;;;;;;;5115358;28;20253;-35
2023/11/10 00:42:29;;;;;;;5.22;2.33;;;;;;;;;;5115550;28;20048;-35
2023/11/10 00:44:56;;;;;;;6.20;2.47;;;;;;;;;;5115879;28;20087;-36
2023/11/10 00:47:21;;;;;;;6.38;2.92;;;;;;;;;;5115508;28;20451;-33
2023/11/10 00:49:46;;;;;;;6.37;2.80;;;;;;;;;;5115178;28;20050;-36
2023/11/10 00:52:11;;;;;;;3.97;2.55;;;;;;;;;;5115171;28;20281;-35
2023/11/10 00:54:37;;;;;;;7.20;2.90;;;;;;;;;;5115377;28;20370;-34
2023/11/10 00:57:02;;;;;;;6.53;3.00;;;;;;;;;;5115066;28;20253;-35
2023/11/10 00:59:27;;;;;;;4.05;2.65;;;;;;;;;;5115321;28;20023;-36
2023/11/10 01:01:53;;;;;;;6.63;2.63;;;;;;;;;;5114848;28;20054;-35
2023/11/10 01:04:18;;;;;;;6.50;2.80;;;;;;;;;;5115484;28;20026;-36
2023/11/10 01:06:43;;;;;;;6.87;2.93;;;;;;;;;;5115330;28;20257;-37
2023/11/10 01:09:08;;;;;;;4.67;2.83;;;;;;;;;;5114811;28;20668;-35
2023/11/10 01:11:33;;;;;;;5.50;2.95;;;;;;;;;;5114199;28;20279;-36
2023/11/10 01:13:59;;;;;;;8.50;3.10;;;;;;;;;;5114738;28;20066;-36
2023/11/10 01:16:24;;;;;;;6.43;3.30;;;;;;;;;;5115203;28;20450;-34
2023/11/10 01:18:50;;;;;;;4.93;3.03;;;;;;;;;;5114913;28;20098;-35
2023/11/10 01:21:15;;;;;;;7.05;3.13;;;;;;;;;;5114825;28;20020;-35
2023/11/10 01:23:41;;;;;;;6.72;3.00;;;;;;;;;;5115244;28;20478;-36
2023/11/10 01:26:07;;;;;;;7.38;3.28;;;;;;;;;;5114783;28;20020;-35
2023/11/10 01:28:32;;;;;;;8.98;3.25;;;;;;;;;;5115015;28;20011;-35
2023/11/10 01:30:57;;;;;;;5.43;3.17;;;;;;;;;;5114408;28;20023;-36
2023/11/10 01:33:22;;;;;;;10.47;3.20;;;;;;;;;;5114365;28;20341;-36
2023/11/10 01:35:47;;;;;;;5.75;3.10;;;;;;;;;;5114271;28;20280;-36
2023/11/10 01:38:14;;;;;;;6.93;3.22;;;;;;;;;;5114589;28;20024;-36
2023/11/10 01:40:40;;;;;;;6.55;3.33;;;;;;;;;;5114567;28;20115;-36
2023/11/10 01:43:11;;;;;;;8.77;3.35;;;;;;;;;;5114654;28;20098;-35
2023/11/10 01:45:37;;;;;;;9.13;3.10;;;;;;;;;;5114339;28;20024;-35
2023/11/10 01:48:03;;;;;;;9.27;3.20;;;;;;;;;;5114702;28;20518;-36
2023/11/10 01:50:28;;;;;;;6.10;2.88;;;;;;;;;;5114367;28;20350;-35
2023/11/10 01:52:53;;;;;;;4.97;2.90;;;;;;;;;;5114274;28;20043;-35
2023/11/10 01:55:19;;;;;;;8.10;2.97;;;;;;;;;;5114014;28;20336;-36
2023/11/10 01:57:46;;;;;;;6.03;2.80;;;;;;;;;;5114049;28;20027;-36
2023/11/10 02:00:13;;;;;;;4.72;2.72;;;;;;;;;;5114675;28;20066;-36
2023/11/10 02:02:38;;;;;;;8.05;3.15;;;;;;;;;;5113840;28;20024;-36
2023/11/10 02:05:03;;;;;;;5.20;2.78;;;;;;;;;;5114122;28;20060;-37
2023/11/10 02:07:28;;;;;;;8.93;3.10;;;;;;;;;;5114438;28;20027;-33
2023/11/10 02:09:54;;;;;;;5.03;2.92;;;;;;;;;;5114079;28;20016;-36
2023/11/10 02:12:19;;;;;;;6.05;3.05;;;;;;;;;;5114335;28;20024;-36
2023/11/10 02:14:44;;;;;;;5.90;3.15;;;;;;;;;;5114284;28;20023;-36
2023/11/10 02:17:10;;;;;;;6.13;3.17;;;;;;;;;;5114361;28;20028;-36
2023/11/10 02:19:35;;;;;;;4.47;2.97;;;;;;;;;;5113716;28;20024;-35
2023/11/10 02:22:01;;;;;;;7.47;3.20;;;;;;;;;;5113759;28;20026;-36
2023/11/10 02:24:27;;;;;;;5.72;2.67;;;;;;;;;;5118005;28;20272;-33
2023/11/10 02:26:53;;;;;;;4.43;2.70;;;;;;;;;;5118201;28;20366;-36
2023/11/10 02:29:18;;;;;;;6.15;3.00;;;;;;;;;;5118130;28;20015;-34
2023/11/10 02:31:44;;;;;;;6.47;3.00;;;;;;;;;;5118201;28;20458;-35
2023/11/10 02:34:09;;;;;;;5.18;2.78;;;;;;;;;;5117804;28;20122;-36
2023/11/10 02:36:34;;;;;;;5.93;2.87;;;;;;;;;;5118395;28;20098;-36
2023/11/10 02:38:59;;;;;;;7.47;2.88;;;;;;;;;;5117990;28;20260;-34
2023/11/10 02:41:24;;;;;;;6.22;2.65;;;;;;;;;;5117677;28;20064;-35
2023/11/10 02:43:50;;;;;;;7.47;2.40;;;;;;;;;;5118074;28;20093;-36
2023/11/10 02:46:15;;;;;;;5.13;2.50;;;;;;;;;;5117579;28;20348;-35
2023/11/10 02:48:40;;;;;;;4.97;2.50;;;;;;;;;;5117534;28;20019;-34
2023/11/10 02:51:05;;;;;;;5.13;2.67;;;;;;;;;;5117775;28;20098;-35
2023/11/10 02:53:31;;;;;;;6.45;2.58;;;;;;;;;;5117345;28;20278;-36
2023/11/10 02:55:56;;;;;;;4.85;2.38;;;;;;;;;;5117395;28;20026;-33
2023/11/10 02:58:21;;;;;;;6.75;2.33;;;;;;;;;;5117609;28;20015;-35
2023/11/10 03:00:47;;;;;;;7.85;2.25;;;;;;;;;;5117851;28;20076;-38
2023/11/10 03:03:12;;;;;;;5.22;2.20;;;;;;;;;;5117721;28;20015;-33
2023/11/10 03:05:39;;;;;;;6.82;2.30;;;;;;;;;;5117221;28;20022;-36
2023/11/10 03:08:05;;;;;;;4.88;2.38;;;;;;;;;;5117462;28;20065;-35
2023/11/10 03:10:30;;;;;;;6.30;2.33;;;;;;;;;;5117383;28;20041;-36
2023/11/10 03:12:55;;;;;;;6.10;2.40;;;;;;;;;;5116947;28;20498;-36
2023/11/10 03:15:21;;;;;;;3.10;1.83;;;;;;;;;;5116983;28;20015;-34
2023/11/10 03:17:46;;;;;;;7.85;2.33;;;;;;;;;;5117017;28;20329;-35
2023/11/10 03:20:12;;;;;;;5.40;2.28;;;;;;;;;;5117235;28;20378;-35
2023/11/10 03:22:38;;;;;;;5.15;2.20;;;;;;;;;;5117085;28;20016;-36
2023/11/10 03:25:03;;;;;;;5.07;2.22;;;;;;;;;;5117883;28;20014;-35
2023/11/10 03:27:28;;;;;;;7.80;2.50;;;;;;;;;;5116703;28;20022;-36
2023/11/10 03:29:54;;;;;;;5.85;2.50;;;;;;;;;;5116685;28;20023;-36
2023/11/10 03:32:19;;;;;;;4.73;2.60;;;;;;;;;;5116623;28;20038;-35
2023/11/10 03:34:44;;;;;;;7.43;3.20;;;;;;;;;;5115654;28;20257;-35
2023/11/10 03:37:11;;;;;;;6.97;2.90;;;;;;;;;;5116532;28;20016;-35
2023/11/10 03:39:36;;;;;;;8.38;2.45;;;;;;;;;;5116655;28;20318;-36
2023/11/10 03:42:02;;;;;;;4.25;2.70;;;;;;;;;;5116366;28;20020;-37
2023/11/10 03:44:27;;;;;;;6.53;3.00;;;;;;;;;;5116474;28;20023;-34
2023/11/10 03:46:52;;;;;;;6.55;2.80;;;;;;;;;;5116447;28;20095;-35
2023/11/10 03:49:17;;;;;;;5.60;2.80;;;;;;;;;;5116944;28;20016;-34
2023/11/10 03:51:43;;;;;;;8.15;3.60;;;;;;;;;;5116138;28;20141;-36
2023/11/10 03:54:08;;;;;;;7.68;3.17;;;;;;;;;;5116583;28;20030;-35
2023/11/10 03:56:36;;;;;;;5.88;3.17;;;;;;;;;;5116797;28;20020;-36
2023/11/10 03:59:04;;;;;;;7.45;3.20;;;;;;;;;;5116767;28;20455;-35
2023/11/10 04:01:31;;;;;;;7.20;3.33;;;;;;;;;;5116081;28;20027;-36
2023/11/10 04:03:56;;;;;;;8.02;3.40;;;;;;;;;;5116004;28;20024;-35
2023/11/10 04:06:22;;;;;;;8.30;3.50;;;;;;;;;;5116344;28;20022;-35
2023/11/10 04:08:47;;;;;;;8.10;3.40;;;;;;;;;;5115986;28;20019;-35
2023/11/10 04:11:13;;;;;;;12.27;4.40;;;;;;;;;;5116163;28;20022;-36
2023/11/10 04:13:39;;;;;;;6.05;3.25;;;;;;;;;;5116137;28;20071;-36
2023/11/10 04:16:06;;;;;;;12.02;3.45;;;;;;;;;;5116137;28;20370;-36
2023/11/10 04:18:31;;;;;;;7.60;3.40;;;;;;;;;;5116081;28;20019;-35
2023/11/10 04:20:56;;;;;;;9.60;3.00;;;;;;;;;;5115851;28;20453;-36
2023/11/10 04:23:21;;;;;;;11.57;3.23;;;;;;;;;;5115669;28;20414;-35
2023/11/10 04:25:47;;;;;;;8.90;3.00;;;;;;;;;;5115928;28;20261;-34
2023/11/10 04:28:12;;;;;;;6.30;3.00;;;;;;;;;;5115955;28;20071;-35
2023/11/10 04:30:38;;;;;;;7.40;3.22;;;;;;;;;;5115908;28;20016;-36
2023/11/10 04:33:03;;;;;;;7.13;2.53;;;;;;;;;;5116375;28;20385;-36
2023/11/10 04:35:28;;;;;;;6.40;3.10;;;;;;;;;;5115467;28;20066;-36
2023/11/10 04:38:00;;;;;;;6.73;2.93;;;;;;;;;;5115477;28;20249;-35
2023/11/10 04:40:27;;;;;;;6.07;3.22;;;;;;;;;;5115376;28;20300;-36
2023/11/10 04:42:53;;;;;;;9.55;3.28;;;;;;;;;;5115570;28;20019;-35
2023/11/10 04:45:18;;;;;;;9.73;3.25;;;;;;;;;;5115140;28;20466;-36
2023/11/10 04:47:43;;;;;;;8.23;3.30;;;;;;;;;;5115378;28;20023;-36
2023/11/10 04:50:10;;;;;;;10.37;3.37;;;;;;;;;;5115504;28;20285;-35
2023/11/10 04:52:36;;;;;;;6.95;3.40;;;;;;;;;;5115152;28;20306;-35
2023/11/10 04:55:01;;;;;;;6.93;3.40;;;;;;;;;;5115311;28;20031;-36
2023/11/10 04:57:27;;;;;;;7.72;3.60;;;;;;;;;;5115335;28;20523;-36
2023/11/10 04:59:54;;;;;;;8.07;3.60;;;;;;;;;;5115210;28;20114;-35
2023/11/10 05:02:19;;;;;;;8.50;3.05;;;;;;;;;;5115123;28;20330;-36
2023/11/10 05:04:45;;;;;;;6.05;3.20;;;;;;;;;;5114923;28;20012;-36
2023/11/10 05:07:11;;;;;;;15.48;4.00;;;;;;;;;;5115948;28;20439;-36
2023/11/10 05:09:36;;;;;;;8.52;3.53;;;;;;;;;;5115084;28;20042;-36
2023/11/10 05:12:02;;;;;;;12.23;3.45;;;;;;;;;;5114706;28;20463;-35
2023/11/10 05:14:27;;;;;;;6.75;3.22;;;;;;;;;;5115317;28;20019;-34
2023/11/10 05:16:53;;;;;;;9.83;3.53;;;;;;;;;;5114707;28;20420;-36
2023/11/10 05:19:18;;;;;;;7.80;3.03;;;;;;;;;;5113663;28;20265;-35
2023/11/10 05:21:43;;;;;;;7.25;3.10;;;;;;;;;;5114890;28;20393;-36
2023/11/10 05:24:10;;;;;;;8.13;3.03;;;;;;;;;;5114730;28;20434;-36
2023/11/10 05:26:36;;;;;;;7.45;3.17;;;;;;;;;;5114799;28;20361;-34
2023/11/10 05:29:01;;;;;;;7.97;3.30;;;;;;;;;;5114337;28;20058;-36
2023/11/10 05:31:27;;;;;;;6.72;2.90;;;;;;;;;;5114657;28;20030;-35
2023/11/10 05:33:52;;;;;;;9.07;2.95;;;;;;;;;;5114688;28;20091;-35
2023/11/10 05:36:17;;;;;;;14.75;2.90;;;;;;;;;;5114930;28;20043;-35
2023/11/10 05:38:43;;;;;;;11.80;3.35;;;;;;;;;;5114157;28;20016;-33
2023/11/10 05:41:08;;;;;;;9.25;3.50;;;;;;;;;;5114523;28;20031;-36
2023/11/10 05:43:33;;;;;;;9.77;3.43;;;;;;;;;;5114166;28;20034;-35
2023/11/10 05:45:59;;;;;;;8.03;3.40;;;;;;;;;;5114721;28;20254;-36
2023/11/10 05:48:24;;;;;;;7.38;3.40;;;;;;;;;;5114045;28;20306;-35
2023/11/10 05:50:49;;;;;;;9.03;3.07;;;;;;;;;;5114441;28;20023;-35
2023/11/10 05:53:15;;;;;;;8.02;2.80;;;;;;;;;;5114024;28;20835;-36
2023/11/10 05:55:40;;;;;;;9.38;2.92;;;;;;;;;;5114193;28;20038;-35
2023/11/10 05:58:05;;;;;;;6.03;2.83;;;;;;;;;;5113427;28;20062;-35
2023/11/10 06:00:30;;;;;;;6.30;2.55;;;;;;;;;;5114242;28;20015;-36
2023/11/10 06:02:56;;;;;;;7.80;2.43;;;;;;;;;;5114174;28;20023;-34
2023/11/10 06:05:23;;;;;;;6.30;2.10;;;;;;;;;;5114179;28;20260;-36
2023/11/10 06:07:50;;;;;;;7.95;2.15;;;;;;;;;;5114186;28;20008;-35
2023/11/10 06:10:17;;;;;;;6.65;2.30;;;;;;;;;;5114117;28;20022;-36
2023/11/10 06:12:42;;;;;;;4.38;1.85;;;;;;;;;;5113980;28;20080;-35
2023/11/10 06:15:09;;;;;;;7.43;2.10;;;;;;;;;;5114388;28;20019;-35
2023/11/10 06:17:35;;;;;;;7.70;1.90;;;;;;;;;;5114071;28;20723;-36
2023/11/10 06:20:00;;;;;;;5.20;1.92;;;;;;;;;;5114041;28;20016;-36
2023/11/10 06:22:25;;;;;;;15.63;2.33;;;;;;;;;;5114070;28;20019;-33
2023/11/10 06:24:52;;;;;;;9.23;2.20;;;;;;;;;;5114025;28;20250;-34
2023/11/10 06:27:17;;;;;;;10.93;2.00;;;;;;;;;;5113933;28;20100;-35
2023/11/10 06:29:42;;;;;;;6.88;1.80;;;;;;;;;;5114309;28;20040;-36
2023/11/10 06:32:09;;;;;;;6.63;1.88;;;;;;;;;;5114177;28;20015;-34
2023/11/10 06:34:35;;;;;;;5.20;1.85;;;;;;;;;;5113843;28;20023;-35
2023/11/10 06:37:01;;;;;;;5.15;2.05;;;;;;;;;;5113851;28;20564;-36
2023/11/10 06:39:26;;;;;;;6.72;2.00;;;;;;;;;;5113507;28;20501;-36
2023/11/10 06:41:52;;;;;;;5.50;1.90;;;;;;;;;;5113590;28;20020;-36
2023/11/10 06:44:19;;;;;;;4.57;1.90;;;;;;;;;;5113720;28;20338;-34
2023/11/10 06:46:44;;;;;;;4.20;1.92;;;;;;;;;;5113749;28;20022;-34
2023/11/10 06:49:09;;;;;;;7.53;2.50;;;;;;;;;;5113527;28;20103;-35
2023/11/10 06:51:35;;;;;;;6.70;1.80;;;;;;;;;;5113876;28;20016;-34
2023/11/10 06:54:00;;;;;;;7.20;1.92;;;;;;;;;;5114482;28;20257;-36
2023/11/10 06:56:25;;;;;;;4.80;1.80;;;;;;;;;;5113394;28;20023;-35
2023/11/10 06:58:50;;;;;;;5.35;1.80;;;;;;;;;;5113383;28;20253;-36
2023/11/10 07:01:16;;;;;;;5.00;2.07;;;;;;;;;;5113355;28;20054;-36
2023/11/10 07:03:42;;;;;;;8.38;2.00;;;;;;;;;;5113566;28;20277;-35
2023/11/10 07:06:08;;;;;;;8.25;1.77;;;;;;;;;;5113285;28;20043;-34
2023/11/10 07:08:34;;;;;;;8.82;1.95;;;;;;;;;;5113351;28;20019;-35
2023/11/10 07:11:01;;;;;;;7.75;1.80;;;;;;;;;;5099224;28;20023;-36
2023/11/10 07:13:26;;;;;;;9.00;2.33;;;;;;;;;;5117313;28;20023;-36
2023/11/10 07:15:51;;;;;;;4.47;1.77;;;;;;;;;;5116970;28;20030;-34
2023/11/10 07:18:17;;;;;;;6.35;1.80;;;;;;;;;;5117234;28;20024;-36
2023/11/10 07:20:44;;;;;;;6.55;2.00;;;;;;;;;;5116947;28;20015;-36
2023/11/10 07:23:10;;;;;;;3.67;1.58;;;;;;;;;;5116857;28;20104;-34
2023/11/10 07:25:35;;;;;;;7.47;1.95;;;;;;;;;;5116786;28;20394;-34
2023/11/10 07:28:01;;;;;;;10.95;2.72;;;;;;;;;;5116920;28;20019;-33
2023/11/10 07:30:28;;;;;;;6.90;1.80;;;;;;;;;;5117131;28;20049;-34
2023/11/10 07:32:53;;;;;;;8.00;1.90;;;;;;;;;;5116880;28;20514;-36
2023/11/10 07:35:18;;;;;;;5.55;2.08;;;;;;;;;;5116877;28;20043;-35
2023/11/10 07:37:44;;;;;;;8.07;1.92;;;;;;;;;;5115268;28;20024;-35
2023/11/10 07:40:17;;;;;;;6.78;1.90;;;;;;;;;;5116803;28;20072;-33
2023/11/10 07:42:42;;;;;;;;;;;;;;;;;;5117237;28;20024;-36
2023/11/10 07:45:08;;;;;;;3.75;1.73;;;;;;;;;;5116520;28;20319;-36
2023/11/10 07:47:35;;;;;;;4.32;1.70;;;;;;;;;;5116628;28;20024;-34
2023/11/10 07:50:01;;;;;;;6.53;2.08;;;;;;;;;;5116665;28;20420;-36
2023/11/10 07:52:27;;;;;;;4.68;2.10;;;;;;;;;;5114593;28;20165;-35
2023/11/10 07:54:53;;;;;;;6.20;2.15;;;;;;;;;;5115624;28;20357;-36
2023/11/10 07:57:18;;;;;;;7.07;2.55;;;;;;;;;;5116072;28;20023;-36
2023/11/10 07:59:43;;;;;;;3.77;1.87;;;;;;;;;;5116648;28;20035;-33
2023/11/10 08:02:08;;;;;;;8.53;2.40;;;;;;;;;;5116213;28;20806;-33
2023/11/10 08:04:36;;;;;;;6.55;2.30;;;;;;;;;;5116056;28;20265;-36
2023/11/10 08:07:01;;;;;;;7.38;2.22;;;;;;;;;;5116260;28;20019;-35
2023/11/10 08:09:26;;;;;;;9.02;2.63;;;;;;;;;;5116551;28;20030;-36
2023/11/10 08:11:52;;;;;;;6.80;2.20;;;;;;;;;;5116197;28;20011;-36
2023/11/10 08:14:17;;;;;;;5.72;2.33;;;;;;;;;;5115935;28;20526;-34
2023/11/10 08:16:42;;;;;;;7.00;2.30;;;;;;;;;;5115738;28;20019;-36
2023/11/10 08:19:10;;;;;;;8.97;2.73;;;;;;;;;;5115938;28;20257;-35
2023/11/10 08:21:35;;;;;;;7.50;2.33;;;;;;;;;;5115690;28;20258;-36
2023/11/10 08:24:00;;;;;;;8.02;2.50;;;;;;;;;;5115587;28;20023;-37
2023/11/10 08:26:25;;;;;;;11.23;2.50;;;;;;;;;;5116040;28;20046;-36
2023/11/10 08:28:50;;;;;;;8.63;2.93;;;;;;;;;;5114493;28;20394;-36
2023/11/10 08:31:15;;;;;;;8.33;2.57;;;;;;;;;;5113945;28;20767;-35
2023/11/10 08:33:41;;;;;;;11.10;2.80;;;;;;;;;;5115843;28;20291;-36
2023/11/10 08:36:06;;;;;;;9.02;2.83;;;;;;;;;;5115480;28;20668;-36
2023/11/10 08:38:31;;;;;;;9.18;2.63;;;;;;;;;;5115693;28;20026;-36
2023/11/10 08:40:56;;;;;;;9.32;3.00;;;;;;;;;;5115650;28;20016;-35
2023/11/10 08:43:22;;;;;;;14.75;2.70;;;;;;;;;;5115232;28;20030;-36
2023/11/10 08:45:47;;;;;;;9.23;2.80;;;;;;;;;;5115472;28;20035;-36
2023/11/10 08:48:13;;;;;;;7.97;2.75;;;;;;;;;;5115100;28;20253;-34
2023/11/10 08:50:39;;;;;;;5.80;2.40;;;;;;;;;;5115417;28;20012;-36
2023/11/10 08:53:04;;;;;;;10.45;3.75;;;;;;;;;;5114835;28;20439;-36
2023/11/10 08:55:29;;;;;;;10.82;2.63;;;;;;;;;;5114861;28;20117;-34
2023/11/10 08:57:54;;;;;;;11.47;3.13;;;;;;;;;;5114945;28;20450;-35
2023/11/10 09:00:20;;;;;;;9.47;3.30;;;;;;;;;;5115489;28;20264;-36
2023/11/10 09:02:46;;;;;;;5.38;2.80;;;;;;;;;;5115219;28;20365;-35
2023/11/10 09:05:12;;;;;;;8.27;3.33;;;;;;;;;;5113473;28;20455;-34
2023/11/10 09:07:39;;;;;;;7.72;3.20;;;;;;;;;;5114806;28;20015;-35
2023/11/10 09:10:04;;;;;;;9.73;3.33;;;;;;;;;;5114729;28;20099;-35
2023/11/10 09:12:32;;;;;;;9.13;3.35;;;;;;;;;;5115107;28;20059;-35
2023/11/10 09:14:57;;;;;;;7.38;3.22;;;;;;;;;;5114628;28;20024;-36
2023/11/10 09:17:23;;;;;;;10.75;3.17;;;;;;;;;;5114636;28;20018;-35
2023/11/10 09:19:48;;;;;;;8.73;3.15;;;;;;;;;;5114879;28;20027;-34
2023/11/10 09:22:13;;;;;;;12.30;3.53;;;;;;;;;;5114450;28;20024;-35
2023/11/10 09:24:40;;;;;;;11.60;3.97;;;;;;;;;;5114411;28;20019;-34
2023/11/10 09:27:05;;;;;;;10.70;3.60;;;;;;;;;;5114642;28;20015;-34
2023/11/10 09:29:30;;;;;;;11.48;3.90;;;;;;;;;;5114614;28;20011;-35
2023/11/10 09:31:56;;;;;;;10.38;3.90;;;;;;;;;;5114042;28;20024;-33
2023/11/10 09:34:23;;;;;;;11.55;3.65;;;;;;;;;;5113991;28;20023;-36
2023/11/10 09:36:49;;;;;;;11.90;3.75;;;;;;;;;;5114450;28;20026;-33
2023/11/10 09:39:15;;;;;;;9.90;3.70;;;;;;;;;;5114288;28;20378;-33
2023/11/10 09:41:41;;;;;;;11.00;4.20;;;;;;;;;;5114497;28;20027;-36
2023/11/10 09:44:12;;;;;;;7.57;3.60;;;;;;;;;;5114314;28;20103;-36
2023/11/10 09:46:38;;;;;;;8.27;3.33;;;;;;;;;;5114433;28;20099;-36
2023/11/10 09:49:04;;;;;;;12.88;3.88;;;;;;;;;;5114085;28;20132;-33
2023/11/10 09:51:30;;;;;;;9.90;3.63;;;;;;;;;;5114332;28;20019;-35
2023/11/10 09:53:56;;;;;;;11.77;3.78;;;;;;;;;;5113906;28;20410;-33
2023/11/10 09:56:22;;;;;;;7.13;3.55;;;;;;;;;;5114105;28;20019;-35
2023/11/10 09:58:47;;;;;;;12.93;3.92;;;;;;;;;;5113777;28;20027;-36
2023/11/10 10:01:12;;;;;;;8.95;3.40;;;;;;;;;;5113923;28;20023;-36
2023/11/10 10:03:37;;;;;;;10.83;3.43;;;;;;;;;;5114412;28;20058;-36
2023/11/10 10:06:03;;;;;;;11.13;3.07;;;;;;;;;;5114162;28;20291;-35
2023/11/10 10:08:28;;;;;;;10.02;3.03;;;;;;;;;;5114020;28;20250;-33
2023/11/10 10:10:54;;;;;;;7.20;2.80;;;;;;;;;;5114059;28;20012;-36
2023/11/10 10:13:20;;;;;;;13.48;3.20;;;;;;;;;;5113935;28;20091;-34
2023/11/10 10:15:45;;;;;;;8.38;2.38;;;;;;;;;;5114645;28;20020;-33
2023/11/10 10:18:10;;;;;;;8.80;3.03;;;;;;;;;;5113730;28;20019;-35
2023/11/10 10:20:39;;;;;;;6.40;2.60;;;;;;;;;;5096308;28;20269;-34
2023/11/10 10:23:05;;;;;;;10.20;2.53;;;;;;;;;;5113936;28;20197;-35
2023/11/10 10:25:31;;;;;;;8.95;2.47;;;;;;;;;;5113523;28;20015;-34
2023/11/10 10:27:57;;;;;;;5.82;2.50;;;;;;;;;;5113446;28;20026;-36
2023/11/10 10:30:24;;;;;;;9.00;2.60;;;;;;;;;;5113161;28;20015;-35
2023/11/10 10:32:51;;;;;;;4.22;2.17;;;;;;;;;;5113073;28;20024;-36
2023/11/10 10:35:16;;;;;;;6.30;2.30;;;;;;;;;;5113114;28;20023;-36
2023/11/10 10:37:43;;;;;;;6.60;2.20;;;;;;;;;;5113079;28;20099;-35
2023/11/10 10:40:09;;;;;;;6.47;2.35;;;;;;;;;;5113274;28;20740;-35
2023/11/10 10:42:35;;;;;;;6.82;2.28;;;;;;;;;;5113703;28;20031;-35
2023/11/10 10:45:01;;;;;;;6.50;2.35;;;;;;;;;;5116327;28;20012;-36
2023/11/10 10:47:28;;;;;;;6.13;2.13;;;;;;;;;;5117563;28;20319;-34
2023/11/10 10:49:54;;;;;;;8.63;2.15;;;;;;;;;;5117556;28;20106;-35
2023/11/10 10:52:19;;;;;;;9.90;2.30;;;;;;;;;;5117439;28;20055;-34
2023/11/10 10:54:46;;;;;;;4.72;2.20;;;;;;;;;;5117457;28;20494;-35
2023/11/10 10:57:13;;;;;;;4.03;2.00;;;;;;;;;;5117022;28;20094;-35
2023/11/10 10:59:38;;;;;;;7.13;2.38;;;;;;;;;;5117145;28;20018;-35
2023/11/10 11:02:04;;;;;;;7.53;2.80;;;;;;;;;;5116617;28;20020;-36
2023/11/10 11:04:35;;;;;;;7.82;2.40;;;;;;;;;;5117351;28;20076;-37
2023/11/10 11:07:13;;;;;;;8.50;2.60;;;;;;;;;;5116796;28;20016;-35
2023/11/10 11:09:56;;;;;;;6.90;2.28;;;;;;;;;;5117368;28;20020;-35
2023/11/10 11:12:54;;;;;;;12.35;3.00;;;;;;;;;;5117051;28;20020;-34
2023/11/10 11:15:39;;;;;;;7.78;2.30;;;;;;;;;;5100508;28;20035;-35
2023/11/10 11:18:17;;;;;;;8.27;2.38;;;;;;;;;;5117374;28;20026;-36
2023/11/10 11:20:42;;;;;;;6.22;2.40;;;;;;;;;;5117273;28;20016;-33
2023/11/10 11:23:08;;;;;;;4.68;2.33;;;;;;;;;;5117036;28;20019;-35
2023/11/10 11:25:35;;;;;;;6.80;2.40;;;;;;;;;;5116800;28;20016;-36
2023/11/10 11:28:00;;;;;;;6.53;2.67;;;;;;;;;;5116575;28;20046;-36
2023/11/10 11:30:40;;;;;;;7.35;2.35;;;;;;;;;;5116892;28;20098;-35
2023/11/10 11:33:11;;;;;;;7.47;2.30;;;;;;;;;;5116901;28;20016;-36
2023/11/10 11:35:38;;;;;;;11.45;2.90;;;;;;;;;;5116806;28;20082;-35
2023/11/10 11:38:03;;;;;;;7.45;2.50;;;;;;;;;;5098272;28;20054;-36
2023/11/10 11:40:34;;;;;;;8.02;2.25;;;;;;;;;;5116513;28;20043;-36
2023/11/10 11:43:08;;;;;;;7.88;2.75;;;;;;;;;;5117001;28;20016;-35
2023/11/10 11:45:33;;;;;;;4.97;2.38;;;;;;;;;;5116773;28;20023;-35
2023/11/10 11:47:59;;;;;;;6.17;2.60;;;;;;;;;;5116373;28;20018;-35
2023/11/10 11:50:24;;;;;;;6.30;2.95;;;;;;;;;;5116667;28;20279;-35
2023/11/10 11:52:49;;;;;;;7.00;2.80;;;;;;;;;;5116651;28;20044;-34
2023/11/10 11:55:15;;;;;;;10.13;2.90;;;;;;;;;;5115912;28;20104;-34
2023/11/10 11:57:46;;;;;;;5.68;2.50;;;;;;;;;;5115774;28;20365;-36
2023/11/10 12:00:12;;;;;;;6.88;2.80;;;;;;;;;;5115986;28;20020;-35
2023/11/10 12:02:40;;;;;;;10.35;2.80;;;;;;;;;;5115519;28;20080;-35
2023/11/10 12:05:06;;;;;;;12.05;3.10;;;;;;;;;;5115725;28;20065;-33
2023/11/10 12:07:34;;;;;;;11.43;2.80;;;;;;;;;;5115524;28;20020;-35
2023/11/10 12:09:59;;;;;;;7.13;2.85;;;;;;;;;;5115501;28;20045;-33
2023/11/10 12:12:26;;;;;;;8.20;2.80;;;;;;;;;;5115778;28;20020;-34
2023/11/10 12:14:51;;;;;;;9.88;2.90;;;;;;;;;;5116237;28;20808;-33
2023/11/10 12:17:16;;;;;;;4.75;2.75;;;;;;;;;;5115947;28;20016;-35
2023/11/10 12:19:43;;;;;;;11.45;3.25;;;;;;;;;;5115778;28;20043;-34
2023/11/10 12:22:08;;;;;;;7.55;2.75;;;;;;;;;;5115986;28;20027;-36
2023/11/10 12:24:35;;;;;;;6.07;2.60;;;;;;;;;;5115649;28;20023;-36
2023/11/10 12:27:01;;;;;;;7.15;2.50;;;;;;;;;;5115595;28;20334;-36
2023/11/10 12:29:28;;;;;;;8.63;2.55;;;;;;;;;;5115873;28;20024;-35
2023/11/10 12:31:53;;;;;;;10.00;2.83;;;;;;;;;;5115808;28;20015;-36
2023/11/10 12:34:19;;;;;;;7.20;2.30;;;;;;;;;;5115429;28;20069;-34
2023/11/10 12:36:45;;;;;;;8.98;2.38;;;;;;;;;;5115699;28;20015;-35
2023/11/10 12:39:17;;;;;;;6.65;2.45;;;;;;;;;;5115366;28;20047;-36
2023/11/10 12:41:45;;;;;;;8.80;2.60;;;;;;;;;;5115606;28;20027;-36
2023/11/10 12:44:12;;;;;;;7.47;2.47;;;;;;;;;;5115474;28;20098;-36
2023/11/10 12:46:37;;;;;;;7.45;2.60;;;;;;;;;;5115102;28;20011;-36
2023/11/10 12:49:03;;;;;;;10.40;2.70;;;;;;;;;;5115142;28;20103;-35
2023/11/10 12:51:29;;;;;;;7.45;2.85;;;;;;;;;;5114870;28;20015;-35
2023/11/10 12:54:20;;;;;;;7.43;2.60;;;;;;;;;;5114750;28;20039;-36
2023/11/10 12:56:46;;;;;;;8.07;2.70;;;;;;;;;;5110985;28;20135;-35
2023/11/10 12:59:11;;;;;;;6.67;2.60;;;;;;;;;;5114983;28;20384;-36
2023/11/10 13:01:36;;;;;;;10.03;2.90;;;;;;;;;;5115512;28;20257;-35
2023/11/10 13:04:03;;;;;;;7.63;2.97;;;;;;;;;;5115167;28;20284;-34
2023/11/10 13:06:28;;;;;;;12.35;3.85;;;;;;;;;;5114570;28;20095;-35
2023/11/10 13:08:53;;;;;;;6.38;2.58;;;;;;;;;;5115087;28;20046;-35
2023/11/10 13:11:19;;;;;;;7.78;2.80;;;;;;;;;;5114577;28;20012;-34
2023/11/10 13:13:44;;;;;;;5.13;2.55;;;;;;;;;;5114974;28;20027;-34
2023/11/10 13:16:09;;;;;;;8.13;2.70;;;;;;;;;;5115254;28;20019;-35
2023/11/10 13:18:35;;;;;;;4.95;2.60;;;;;;;;;;5114837;28;20253;-34
2023/11/10 13:21:00;;;;;;;5.90;2.60;;;;;;;;;;5115029;28;20420;-33
2023/11/10 13:23:27;;;;;;;4.85;2.58;;;;;;;;;;5114473;28;20092;-35
2023/11/10 13:25:52;;;;;;;5.45;2.80;;;;;;;;;;5114414;28;20099;-35
2023/11/10 13:28:18;;;;;;;5.57;3.13;;;;;;;;;;5114691;28;20058;-35
2023/11/10 13:30:43;;;;;;;6.28;2.78;;;;;;;;;;5115072;28;20031;-35
2023/11/10 13:33:08;;;;;;;9.57;3.20;;;;;;;;;;5114362;28;20019;-34
2023/11/10 13:35:35;;;;;;;6.32;2.72;;;;;;;;;;5114588;28;20668;-36
2023/11/10 13:38:00;;;;;;;7.75;2.78;;;;;;;;;;5114855;28;20023;-35
2023/11/10 13:40:25;;;;;;;6.73;2.80;;;;;;;;;;5114275;28;20099;-35
2023/11/10 13:42:50;;;;;;;6.82;3.10;;;;;;;;;;5096701;28;20372;-35
2023/11/10 13:45:16;;;;;;;4.50;2.67;;;;;;;;;;5114041;28;20073;-35
2023/11/10 13:47:41;;;;;;;7.57;2.80;;;;;;;;;;5114302;28;20249;-36
2023/11/10 13:50:10;;;;;;;9.67;3.00;;;;;;;;;;5114310;28;20451;-35
2023/11/10 13:52:35;;;;;;;6.82;2.92;;;;;;;;;;5113725;28;20285;-35
2023/11/10 13:55:00;;;;;;;7.25;3.38;;;;;;;;;;5113868;28;20023;-36
2023/11/10 13:57:25;;;;;;;6.65;3.00;;;;;;;;;;5114284;28;20047;-33
2023/11/10 13:59:50;;;;;;;10.37;2.63;;;;;;;;;;5112901;28;20036;-34
2023/11/10 14:02:17;;;;;;;10.50;2.90;;;;;;;;;;5113543;28;20253;-35
2023/11/10 14:04:42;;;;;;;11.27;3.00;;;;;;;;;;5113796;28;20347;-35
2023/11/10 14:07:07;;;;;;;9.15;3.10;;;;;;;;;;5113806;28;20020;-33
2023/11/10 14:09:33;;;;;;;9.93;3.15;;;;;;;;;;5113711;28;20016;-33
2023/11/10 14:11:59;;;;;;;8.85;3.00;;;;;;;;;;5114236;28;20019;-35
2023/11/10 14:14:24;;;;;;;8.47;2.90;;;;;;;;;;5113860;28;20027;-35
2023/11/10 14:16:49;;;;;;;7.00;2.93;;;;;;;;;;5114115;28;20249;-35
2023/11/10 14:19:15;;;;;;;9.17;2.90;;;;;;;;;;5113256;28;20368;-35
2023/11/10 14:21:40;;;;;;;9.25;3.03;;;;;;;;;;5114040;28;20253;-35
2023/11/10 14:24:05;;;;;;;11.43;3.57;;;;;;;;;;5113698;28;20024;-34
2023/11/10 14:26:31;;;;;;;8.60;3.10;;;;;;;;;;5113979;28;20257;-32
2023/11/10 14:28:56;;;;;;;6.97;3.28;;;;;;;;;;5113596;28;20016;-32
2023/11/10 14:31:21;;;;;;;11.50;3.30;;;;;;;;;;5113672;28;20455;-32
2023/11/10 14:33:48;;;;;;;10.07;3.50;;;;;;;;;;5113521;28;20305;-34